createdAt,value
2019-01-14T00:00:01.005Z,50.67
2019-01-14T00:02:31.794Z,49.42
2019-01-14T00:05:03.473Z,51.85
2019-01-14T00:07:34.198Z,55.43
2019-01-14T00:10:06.053Z,64.65
2019-01-14T00:12:37.522Z,59.98
2019-01-14T00:15:08.420Z,51.13
2019-01-14T00:17:39.456Z,61.55
2019-01-14T00:20:10.493Z,60.65
2019-01-14T00:22:41.873Z,51.00
2019-01-14T00:25:13.306Z,52.23
2019-01-14T00:27:44.641Z,47.13
2019-01-14T00:30:18.274Z,42.45
2019-01-14T00:32:50.094Z,48.65
2019-01-14T00:35:22.138Z,44.90
2019-01-14T00:37:52.768Z,40.33
2019-01-14T00:40:24.128Z,46.10
2019-01-14T00:42:55.384Z,47.93
2019-01-14T00:45:25.784Z,44.05
2019-01-14T00:47:58.932Z,50.83
2019-01-14T00:50:30.217Z,45.23
2019-01-14T00:53:01.522Z,45.65
2019-01-14T00:55:32.928Z,46.00
2019-01-14T00:58:04.397Z,42.78
2019-01-14T01:00:36.278Z,43.98
2019-01-14T01:03:07.919Z,44.85
2019-01-14T01:05:37.688Z,42.48
2019-01-14T01:08:08.742Z,44.50
2019-01-14T01:10:39.440Z,42.67
2019-01-14T01:13:10.651Z,44.58
2019-01-14T01:15:41.973Z,47.20
2019-01-14T01:18:13.508Z,45.12
2019-01-14T01:20:44.468Z,44.35
2019-01-14T01:23:16.540Z,44.65
2019-01-14T01:25:47.997Z,44.27
2019-01-14T01:28:18.856Z,37.93
2019-01-14T01:30:49.410Z,48.28
2019-01-14T01:33:18.913Z,46.85
2019-01-14T01:35:50.376Z,36.68
2019-01-14T01:38:21.988Z,43.92
2019-01-14T01:40:53.306Z,42.67
2019-01-14T01:43:24.873Z,44.70
2019-01-14T01:45:56.434Z,44.85
2019-01-14T01:48:27.014Z,41.53
2019-01-14T01:50:57.784Z,45.95
2019-01-14T01:53:29.614Z,42.83
2019-01-14T01:56:00.829Z,43.23
2019-01-14T01:58:32.092Z,42.58
2019-01-14T02:01:03.734Z,46.18
2019-01-14T02:03:35.011Z,39.60
2019-01-14T02:06:04.813Z,43.70
2019-01-14T02:08:36.064Z,50.03
2019-01-14T02:11:07.508Z,47.15
2019-01-14T02:13:39.161Z,47.60
2019-01-14T02:16:09.810Z,46.50
2019-01-14T02:18:40.587Z,42.27
2019-01-14T02:21:10.089Z,42.15
2019-01-14T02:23:40.900Z,42.80
2019-01-14T02:26:12.484Z,41.30
2019-01-14T02:28:43.731Z,44.40
2019-01-14T02:31:15.376Z,44.25
2019-01-14T02:33:47.529Z,42.70
2019-01-14T02:36:18.576Z,38.90
2019-01-14T02:38:50.191Z,42.80
2019-01-14T02:41:21.155Z,45.10
2019-01-14T02:43:52.183Z,43.58
2019-01-14T02:46:23.023Z,43.58
2019-01-14T02:48:53.240Z,46.20
2019-01-14T02:51:22.955Z,41.28
2019-01-14T02:53:54.343Z,40.33
2019-01-14T02:56:25.196Z,42.80
2019-01-14T02:58:56.490Z,51.25
2019-01-14T03:01:27.241Z,39.95
2019-01-14T03:03:58.489Z,40.88
2019-01-14T03:06:29.063Z,38.65
2019-01-14T03:09:00.737Z,40.28
2019-01-14T03:11:31.930Z,38.85
2019-01-14T03:14:03.249Z,41.50
2019-01-14T03:16:34.662Z,41.28
2019-01-14T03:19:05.779Z,44.23
2019-01-14T03:21:36.543Z,39.95
2019-01-14T03:24:07.621Z,43.75
2019-01-14T03:26:38.366Z,40.15
2019-01-14T03:29:10.231Z,45.10
2019-01-14T03:31:41.569Z,46.18
2019-01-14T03:34:12.467Z,46.70
2019-01-14T03:36:41.906Z,47.45
2019-01-14T03:39:13.826Z,41.08
2019-01-14T03:41:45.027Z,48.70
2019-01-14T03:44:16.603Z,51.45
2019-01-14T03:46:47.979Z,54.33
2019-01-14T03:49:19.650Z,51.53
2019-01-14T03:51:49.076Z,41.80
2019-01-14T03:54:20.549Z,48.33
2019-01-14T03:56:51.939Z,47.60
2019-01-14T03:59:23.561Z,42.95
2019-01-14T04:01:56.962Z,43.52
2019-01-14T04:04:29.355Z,44.88
2019-01-14T04:07:00.391Z,40.60
2019-01-14T04:09:32.057Z,38.40
2019-01-14T04:12:03.826Z,42.20
2019-01-14T04:14:35.073Z,42.17
2019-01-14T04:17:06.194Z,40.63
2019-01-14T04:19:36.888Z,39.78
2019-01-14T04:22:08.683Z,44.50
2019-01-14T04:24:40.221Z,36.25
2019-01-14T04:27:11.787Z,39.67
2019-01-14T04:29:42.481Z,40.63
2019-01-14T04:32:13.925Z,42.67
2019-01-14T04:34:45.306Z,38.02
2019-01-14T04:37:21.492Z,39.80
2019-01-14T04:39:49.386Z,41.33
2019-01-14T04:42:20.482Z,41.85
2019-01-14T04:44:51.254Z,39.98
2019-01-14T04:47:23.048Z,40.75
2019-01-14T04:49:54.697Z,47.35
2019-01-14T04:52:24.603Z,36.73
2019-01-14T04:54:55.875Z,36.75
2019-01-14T04:57:26.854Z,35.95
2019-01-14T04:59:58.242Z,37.42
2019-01-14T05:02:29.656Z,40.23
2019-01-14T05:05:00.858Z,45.20
2019-01-14T05:07:32.562Z,39.75
2019-01-14T05:10:03.447Z,36.08
2019-01-14T05:12:34.822Z,43.75
2019-01-14T05:15:06.031Z,41.75
2019-01-14T05:17:37.202Z,45.05
2019-01-14T05:20:09.663Z,37.78
2019-01-14T05:22:40.691Z,45.65
2019-01-14T05:25:10.636Z,40.23
2019-01-14T05:27:42.302Z,38.40
2019-01-14T05:30:14.379Z,40.25
2019-01-14T05:32:45.840Z,39.65
2019-01-14T05:35:18.846Z,44.58
2019-01-14T05:37:49.879Z,36.88
2019-01-14T05:40:23.264Z,43.13
2019-01-14T05:42:54.200Z,39.90
2019-01-14T05:45:25.320Z,46.75
2019-01-14T05:47:56.683Z,39.58
2019-01-14T05:50:28.313Z,42.33
2019-01-14T05:52:59.116Z,49.15
2019-01-14T05:55:30.650Z,52.27
2019-01-14T05:58:02.161Z,47.50
2019-01-14T06:00:40.496Z,48.68
2019-01-14T06:03:11.208Z,50.65
2019-01-14T06:05:43.057Z,56.30
2019-01-14T06:08:14.000Z,49.27
2019-01-14T06:10:45.590Z,50.92
2019-01-14T06:13:17.314Z,52.62
2019-01-14T06:15:48.687Z,54.23
2019-01-14T06:18:20.127Z,57.53
2019-01-14T06:20:52.191Z,46.13
2019-01-14T06:23:23.525Z,52.55
2019-01-14T06:25:55.007Z,52.95
2019-01-14T06:28:26.248Z,54.15
2019-01-14T06:30:57.595Z,51.53
2019-01-14T06:33:29.144Z,52.15
2019-01-14T06:36:00.445Z,50.33
2019-01-14T06:38:32.068Z,52.20
2019-01-14T06:41:03.467Z,51.02
2019-01-14T06:43:33.884Z,51.92
2019-01-14T06:46:05.275Z,55.10
2019-01-14T06:48:36.276Z,50.03
2019-01-14T06:51:07.287Z,54.63
2019-01-14T06:53:38.838Z,53.60
2019-01-14T06:56:11.037Z,57.38
2019-01-14T06:58:42.234Z,49.60
2019-01-14T07:01:13.720Z,58.30
2019-01-14T07:03:45.150Z,55.10
2019-01-14T07:06:14.992Z,56.48
2019-01-14T07:08:46.299Z,58.42
2019-01-14T07:11:17.642Z,64.40
2019-01-14T07:13:48.963Z,61.60
2019-01-14T07:16:20.379Z,60.58
2019-01-14T07:18:51.913Z,55.20
2019-01-14T07:21:21.689Z,65.00
2019-01-14T07:23:53.341Z,57.38
2019-01-14T07:26:24.814Z,51.53
2019-01-14T07:28:56.540Z,58.87
2019-01-14T07:31:27.559Z,55.43
2019-01-14T07:33:59.197Z,58.87
2019-01-14T07:36:29.725Z,63.52
2019-01-14T07:39:01.413Z,60.17
2019-01-14T07:41:32.801Z,72.95
2019-01-14T07:44:04.318Z,71.70
2019-01-14T07:46:36.037Z,68.95
2019-01-14T07:49:06.769Z,72.62
2019-01-14T07:51:36.202Z,64.37
2019-01-14T07:54:06.557Z,67.97
2019-01-14T07:56:36.788Z,70.95
2019-01-14T07:59:08.295Z,67.50
2019-01-14T08:01:39.807Z,72.82
2019-01-14T08:04:10.055Z,65.12
2019-01-14T08:06:39.564Z,68.72
2019-01-14T08:09:10.620Z,68.07
2019-01-14T08:11:42.296Z,71.82
2019-01-14T08:14:14.221Z,71.85
2019-01-14T08:16:46.281Z,71.35
2019-01-14T08:19:17.614Z,64.45
2019-01-14T08:21:47.212Z,61.68
2019-01-14T08:24:18.497Z,64.80
2019-01-14T08:26:49.473Z,67.70
2019-01-14T08:29:21.195Z,74.15
2019-01-14T08:31:52.237Z,64.95
2019-01-14T08:34:21.912Z,63.30
2019-01-14T08:36:51.401Z,70.75
2019-01-14T08:39:22.796Z,65.80
2019-01-14T08:41:59.102Z,69.17
2019-01-14T08:44:37.292Z,73.80
2019-01-14T08:47:08.851Z,71.70
2019-01-14T08:49:40.430Z,68.60
2019-01-14T08:52:10.573Z,72.55
2019-01-14T08:54:41.837Z,72.03
2019-01-14T08:57:12.284Z,67.60
2019-01-14T08:59:43.220Z,63.92
2019-01-14T09:02:14.787Z,61.02
2019-01-14T09:04:46.373Z,60.90
2019-01-14T09:07:17.461Z,54.03
2019-01-14T09:09:48.837Z,55.83
2019-01-14T09:12:20.410Z,56.65
2019-01-14T09:14:51.036Z,52.80
2019-01-14T09:17:22.354Z,55.63
2019-01-14T09:19:53.043Z,55.08
2019-01-14T09:22:24.443Z,52.35
2019-01-14T09:24:56.866Z,46.80
2019-01-14T09:27:28.321Z,44.80
2019-01-14T09:29:59.897Z,49.65
2019-01-14T09:32:32.240Z,48.48
2019-01-14T09:35:04.130Z,43.75
2019-01-14T09:37:36.910Z,43.38
2019-01-14T09:40:09.637Z,48.28
2019-01-14T09:42:40.771Z,44.55
2019-01-14T09:45:12.743Z,48.23
2019-01-14T09:47:43.885Z,48.48
2019-01-14T09:50:16.262Z,48.00
2019-01-14T09:52:48.007Z,39.08
2019-01-14T09:55:20.199Z,42.85
2019-01-14T09:57:52.270Z,39.27
2019-01-14T10:00:24.215Z,40.50
2019-01-14T10:02:56.800Z,37.05
2019-01-14T10:05:27.814Z,38.85
2019-01-14T10:07:59.726Z,36.42
2019-01-14T10:10:32.555Z,31.23
2019-01-14T10:13:02.625Z,29.65
2019-01-14T10:15:34.521Z,31.00
2019-01-14T10:18:06.688Z,33.00
2019-01-14T10:20:38.112Z,33.88
2019-01-14T10:23:09.245Z,28.85
2019-01-14T10:25:40.646Z,32.75
2019-01-14T10:28:12.537Z,29.42
2019-01-14T10:30:43.968Z,28.98
2019-01-14T10:33:15.121Z,32.40
2019-01-14T10:35:46.639Z,36.28
2019-01-14T10:38:16.980Z,30.37
2019-01-14T10:40:47.605Z,30.55
2019-01-14T10:43:17.279Z,28.98
2019-01-14T10:45:49.345Z,35.68
2019-01-14T10:48:21.195Z,23.83
2019-01-14T10:50:52.344Z,30.60
2019-01-14T10:53:23.232Z,22.15
2019-01-14T10:55:54.232Z,27.25
2019-01-14T10:58:25.190Z,24.10
2019-01-14T11:00:56.206Z,20.85
2019-01-14T11:03:27.141Z,24.00
2019-01-14T11:05:57.853Z,21.40
2019-01-14T11:08:28.327Z,21.85
2019-01-14T11:10:57.936Z,22.93
2019-01-14T11:13:29.584Z,23.20
2019-01-14T11:16:00.423Z,24.55
2019-01-14T11:18:31.874Z,25.70
2019-01-14T11:21:02.593Z,25.00
2019-01-14T11:23:32.849Z,22.02
2019-01-14T11:26:05.988Z,24.60
2019-01-14T11:28:37.375Z,29.63
2019-01-14T11:31:10.110Z,22.70
2019-01-14T11:33:44.334Z,28.20
2019-01-14T11:36:16.557Z,25.43
2019-01-14T11:38:50.694Z,22.97
2019-01-14T11:41:23.198Z,21.73
2019-01-14T11:43:55.140Z,22.87
2019-01-14T11:46:26.326Z,25.92
2019-01-14T11:48:58.031Z,26.48
2019-01-14T11:51:28.701Z,30.07
2019-01-14T11:54:00.196Z,26.77
2019-01-14T11:56:32.181Z,26.57
2019-01-14T11:59:02.873Z,24.20
2019-01-14T12:01:34.562Z,28.77
2019-01-14T12:04:06.020Z,24.80
2019-01-14T12:06:35.805Z,28.10
2019-01-14T12:09:12.261Z,25.37
2019-01-14T12:11:43.613Z,25.30
2019-01-14T12:14:14.330Z,28.00
2019-01-14T12:16:44.579Z,23.47
2019-01-14T12:19:16.387Z,27.33
2019-01-14T12:21:45.937Z,26.33
2019-01-14T12:24:17.124Z,24.07
2019-01-14T12:26:48.492Z,25.13
2019-01-14T12:29:19.472Z,23.40
2019-01-14T12:31:50.341Z,25.77
2019-01-14T12:34:22.278Z,24.90
2019-01-14T12:36:51.896Z,19.67
2019-01-14T12:39:23.583Z,18.53
2019-01-14T12:41:55.158Z,19.00
2019-01-14T12:44:27.259Z,19.23
2019-01-14T12:46:58.384Z,16.80
2019-01-14T12:49:29.240Z,21.60
2019-01-14T12:51:58.731Z,17.47
2019-01-14T12:54:29.957Z,18.23
2019-01-14T12:57:01.613Z,18.63
2019-01-14T12:59:35.111Z,16.93
2019-01-14T13:02:06.279Z,11.63
2019-01-14T13:04:36.776Z,12.70
2019-01-14T13:07:06.279Z,11.10
2019-01-14T13:09:38.547Z,11.33
2019-01-14T13:12:09.536Z,11.77
2019-01-14T13:14:39.946Z,10.43
2019-01-14T13:17:10.188Z,8.40
2019-01-14T13:19:39.660Z,6.67
2019-01-14T13:22:09.124Z,6.70
2019-01-14T13:24:40.750Z,7.77
2019-01-14T13:27:13.605Z,6.93
2019-01-14T13:29:45.286Z,4.87
2019-01-14T13:32:16.504Z,7.50
2019-01-14T13:34:48.247Z,5.63
2019-01-14T13:37:19.559Z,5.33
2019-01-14T13:39:52.602Z,8.13
2019-01-14T13:42:24.140Z,10.90
2019-01-14T13:44:55.339Z,9.97
2019-01-14T13:47:27.143Z,5.83
2019-01-14T13:49:58.671Z,6.10
2019-01-14T13:52:29.828Z,4.90
2019-01-14T13:55:00.352Z,4.93
2019-01-14T13:57:31.543Z,5.57
2019-01-14T14:00:02.878Z,9.63
2019-01-14T14:02:33.835Z,5.80
2019-01-14T14:05:05.977Z,5.30
2019-01-14T14:07:37.902Z,7.60
2019-01-14T14:10:11.437Z,6.20
2019-01-14T14:12:43.012Z,4.93
2019-01-14T14:15:14.556Z,6.27
2019-01-14T14:17:46.182Z,7.77
2019-01-14T14:20:17.994Z,12.63
2019-01-14T14:22:47.405Z,6.70
2019-01-14T14:25:18.923Z,6.43
2019-01-14T14:27:49.832Z,6.53
2019-01-14T14:30:35.914Z,6.43
2019-01-14T14:33:08.551Z,5.10
2019-01-14T14:35:39.788Z,5.00
2019-01-14T14:38:11.318Z,4.23
2019-01-14T14:40:42.387Z,4.17
2019-01-14T14:43:13.724Z,5.17
2019-01-14T14:45:44.406Z,3.43
2019-01-14T14:48:13.859Z,3.80
2019-01-14T14:50:43.279Z,3.43
2019-01-14T14:53:12.672Z,4.80
2019-01-14T14:55:42.106Z,3.77
2019-01-14T14:58:12.709Z,4.50
2019-01-14T15:00:42.103Z,3.90
2019-01-14T15:03:13.331Z,7.20
2019-01-14T15:05:42.812Z,8.07
2019-01-14T15:08:12.262Z,5.43
2019-01-14T15:10:41.733Z,7.13
2019-01-14T15:13:13.015Z,4.40
2019-01-14T15:15:42.624Z,4.57
2019-01-14T15:18:12.049Z,4.03
2019-01-14T15:20:43.247Z,5.03
2019-01-14T15:23:13.853Z,6.33
2019-01-14T15:25:43.268Z,4.73
2019-01-14T15:28:12.692Z,3.87
2019-01-14T15:30:42.163Z,4.70
2019-01-14T15:33:11.579Z,4.13
2019-01-14T15:35:40.989Z,3.90
2019-01-14T15:38:10.419Z,3.07
2019-01-14T15:40:39.897Z,2.83
2019-01-14T15:43:11.129Z,5.20
2019-01-14T15:45:40.563Z,4.60
2019-01-14T15:48:09.953Z,2.00
2019-01-14T15:50:40.498Z,3.07
2019-01-14T15:53:09.924Z,4.20
2019-01-14T15:55:41.219Z,4.80
2019-01-14T15:58:10.643Z,3.90
2019-01-14T16:00:40.048Z,4.17
2019-01-14T16:03:09.488Z,3.57
2019-01-14T16:05:38.932Z,7.53
2019-01-14T16:08:08.462Z,4.17
2019-01-14T16:10:39.667Z,2.80
2019-01-14T16:13:09.156Z,8.13
2019-01-14T16:15:39.768Z,6.63
2019-01-14T16:18:09.188Z,3.70
2019-01-14T16:20:38.593Z,7.13
2019-01-14T16:23:08.108Z,17.73
2019-01-14T16:25:41.147Z,21.00
2019-01-14T16:28:10.556Z,14.13
2019-01-14T16:30:39.952Z,11.73
2019-01-14T16:33:11.468Z,9.47
2019-01-14T16:35:40.872Z,8.13
2019-01-14T16:38:10.274Z,8.83
2019-01-14T16:40:39.798Z,5.43
2019-01-14T16:43:09.197Z,11.23
2019-01-14T16:45:39.727Z,3.27
2019-01-14T16:48:09.209Z,3.33
2019-01-14T16:50:38.612Z,3.93
2019-01-14T16:53:09.390Z,4.47
2019-01-14T16:55:44.021Z,6.57
2019-01-14T16:58:13.435Z,5.30
2019-01-14T17:00:42.865Z,3.77
2019-01-14T17:03:12.262Z,5.43
2019-01-14T17:05:41.658Z,3.00
2019-01-14T17:08:11.152Z,2.23
2019-01-14T17:10:40.630Z,2.47
2019-01-14T17:13:10.064Z,2.73
2019-01-14T17:15:39.566Z,3.90
2019-01-14T17:18:10.137Z,3.17
2019-01-14T17:20:40.022Z,3.23
2019-01-14T17:23:09.560Z,4.30
2019-01-14T17:25:40.016Z,2.87
2019-01-14T17:28:09.616Z,2.53
2019-01-14T17:30:39.044Z,2.90
2019-01-14T17:33:08.461Z,3.73
2019-01-14T17:35:38.001Z,3.83
2019-01-14T17:38:07.521Z,3.07
2019-01-14T17:40:36.989Z,3.23
2019-01-14T17:43:07.500Z,5.73
2019-01-14T17:45:37.013Z,2.90
2019-01-14T17:48:06.524Z,1.87
2019-01-14T17:50:37.129Z,7.03
2019-01-14T17:53:06.871Z,3.57
2019-01-14T17:55:36.340Z,3.77
2019-01-14T17:58:06.748Z,3.13
2019-01-14T18:00:37.190Z,3.50
2019-01-14T18:03:06.673Z,2.30
2019-01-14T18:05:36.168Z,4.40
2019-01-14T18:08:05.573Z,3.40
2019-01-14T18:10:39.931Z,2.53
2019-01-14T18:13:06.256Z,3.63
2019-01-14T18:15:35.708Z,2.63
2019-01-14T18:18:05.165Z,3.80
2019-01-14T18:20:34.616Z,4.33
2019-01-14T18:23:05.123Z,3.73
2019-01-14T18:25:34.542Z,5.87
2019-01-14T18:28:04.033Z,8.53
2019-01-14T18:30:33.538Z,5.83
2019-01-14T18:33:02.953Z,5.30
2019-01-14T18:35:34.171Z,8.07
2019-01-14T18:38:03.595Z,6.50
2019-01-14T18:40:34.827Z,4.67
2019-01-14T18:43:04.228Z,5.03
2019-01-14T18:45:33.644Z,5.33
2019-01-14T18:48:03.080Z,3.63
2019-01-14T18:50:32.556Z,6.03
2019-01-14T18:53:01.963Z,2.80
2019-01-14T18:55:32.400Z,4.73
2019-01-14T18:58:01.813Z,5.50
2019-01-14T19:00:31.212Z,3.80
2019-01-14T19:03:00.721Z,5.53
2019-01-14T19:05:33.037Z,3.30
2019-01-14T19:08:02.451Z,3.23
2019-01-14T19:10:32.029Z,7.13
2019-01-14T19:13:01.456Z,4.53
2019-01-14T19:15:32.128Z,3.70
2019-01-14T19:18:01.551Z,2.23
2019-01-14T19:20:32.049Z,6.57
2019-01-14T19:23:01.484Z,5.27
2019-01-14T19:25:30.920Z,3.53
2019-01-14T19:28:00.328Z,3.07
2019-01-14T19:30:29.787Z,4.00
2019-01-14T19:32:59.233Z,4.70
2019-01-14T19:35:28.734Z,1.97
2019-01-14T19:37:58.243Z,2.90
2019-01-14T19:40:27.638Z,2.70
2019-01-14T19:42:57.039Z,4.53
2019-01-14T19:45:26.468Z,3.30
2019-01-14T19:47:55.881Z,6.07
2019-01-14T19:50:25.578Z,2.67
2019-01-14T19:52:56.322Z,5.73
2019-01-14T19:55:27.112Z,3.50
2019-01-14T19:57:56.740Z,3.90
2019-01-14T20:00:30.440Z,2.33
2019-01-14T20:02:59.955Z,2.60
2019-01-14T20:05:29.544Z,4.40
2019-01-14T20:07:59.148Z,4.00
2019-01-14T20:10:28.586Z,2.60
2019-01-14T20:12:58.513Z,5.03
2019-01-14T20:15:27.947Z,2.87
2019-01-14T20:17:57.377Z,5.93
2019-01-14T20:20:26.884Z,2.43
2019-01-14T20:22:56.289Z,3.17
2019-01-14T20:25:27.012Z,3.80
2019-01-14T20:27:56.536Z,4.33
2019-01-14T20:30:26.280Z,5.53
2019-01-14T20:32:55.709Z,4.07
2019-01-14T20:35:25.219Z,3.50
2019-01-14T20:37:54.689Z,4.10
2019-01-14T20:40:24.162Z,2.83
2019-01-14T20:42:53.660Z,4.27
2019-01-14T20:45:24.904Z,3.02
2019-01-14T20:47:54.395Z,5.10
2019-01-14T20:50:25.812Z,4.40
2019-01-14T20:52:55.348Z,6.85
2019-01-14T20:55:24.765Z,4.23
2019-01-14T20:57:54.237Z,3.70
2019-01-14T21:00:25.419Z,2.37
2019-01-14T21:02:54.912Z,5.05
2019-01-14T21:05:25.481Z,2.58
2019-01-14T21:07:55.035Z,5.45
2019-01-14T21:10:24.521Z,3.45
2019-01-14T21:12:55.063Z,2.87
2019-01-14T21:15:24.644Z,3.65
2019-01-14T21:17:54.062Z,2.47
2019-01-14T21:20:25.729Z,2.52
2019-01-14T21:22:56.196Z,2.42
2019-01-14T21:25:25.713Z,4.50
2019-01-14T21:27:56.920Z,3.22
2019-01-14T21:30:27.591Z,2.80
2019-01-14T21:32:57.032Z,3.00
2019-01-14T21:35:26.443Z,2.92
2019-01-14T21:37:58.656Z,2.50
2019-01-14T21:40:30.000Z,3.27
2019-01-14T21:42:59.458Z,2.90
2019-01-14T21:45:30.332Z,3.72
2019-01-14T21:47:59.740Z,6.17
2019-01-14T21:50:29.372Z,4.90
2019-01-14T21:52:58.816Z,4.75
2019-01-14T21:55:28.256Z,3.20
2019-01-14T21:57:58.876Z,3.85
2019-01-14T22:00:28.289Z,3.15
2019-01-14T22:02:58.817Z,3.62
2019-01-14T22:05:28.386Z,3.20
2019-01-14T22:07:57.831Z,3.58
2019-01-14T22:10:28.485Z,5.30
2019-01-14T22:12:57.924Z,4.40
2019-01-14T22:15:27.332Z,3.20
2019-01-14T22:17:56.728Z,4.62
2019-01-14T22:20:28.341Z,3.92
2019-01-14T22:23:16.833Z,4.85
2019-01-14T22:25:46.370Z,5.22
2019-01-14T22:28:15.872Z,3.85
2019-01-14T22:30:45.352Z,4.33
2019-01-14T22:33:14.777Z,3.65
2019-01-14T22:35:44.358Z,2.12
2019-01-14T22:38:14.910Z,2.62
2019-01-14T22:40:44.442Z,2.57
2019-01-14T22:43:14.964Z,4.80
2019-01-14T22:45:44.376Z,2.33
2019-01-14T22:48:13.780Z,3.35
2019-01-14T22:50:43.231Z,4.15
2019-01-14T22:53:12.645Z,2.30
2019-01-14T22:55:43.057Z,4.30
2019-01-14T22:58:12.492Z,2.20
2019-01-14T23:01:22.916Z,4.65
2019-01-14T23:03:53.480Z,2.67
2019-01-14T23:06:23.100Z,1.90
2019-01-14T23:08:52.584Z,1.80
2019-01-14T23:11:22.079Z,2.60
2019-01-14T23:13:53.392Z,2.00
2019-01-14T23:16:24.274Z,3.40
2019-01-14T23:18:53.672Z,2.80
2019-01-14T23:21:23.104Z,2.10
2019-01-14T23:23:54.383Z,3.35
2019-01-14T23:26:23.801Z,1.75
2019-01-14T23:28:53.376Z,1.72
2019-01-14T23:31:22.818Z,2.47
2019-01-14T23:33:53.224Z,1.85
2019-01-14T23:36:22.824Z,3.35
2019-01-14T23:38:52.225Z,2.02
2019-01-14T23:41:40.672Z,2.20
2019-01-14T23:44:10.094Z,3.27
2019-01-14T23:46:39.616Z,2.30
2019-01-14T23:49:09.132Z,2.50
2019-01-14T23:51:39.634Z,2.30
2019-01-14T23:54:10.579Z,2.17
2019-01-14T23:56:59.108Z,2.50
2019-01-14T23:59:28.509Z,3.08
